Time;durP1;ratioP1;P1;durP2;ratioP2;P2;SDS_P1;SDS_P2;PMS_P1;PMS_P2;Temp;Humidity;BMP_temperature;BMP_pressure;BME280_temperature;BME280_humidity;BME280_pressure;Samples;Min_cycle;Max_cycle;Signal;HPM_P1;HPM_P2
2021/08/14 00:01:36;;;;;;;3.08;2.40;;;26.60;54.00;;;;;;5030446;28;20396;-73
2021/08/14 00:04:03;;;;;;;2.70;2.50;;;26.60;54.00;;;;;;5030304;28;20134;-73
2021/08/14 00:06:31;;;;;;;2.53;2.33;;;26.60;54.00;;;;;;5030081;28;20077;-73
2021/08/14 00:08:59;;;;;;;3.35;2.15;;;26.60;54.00;;;;;;5030138;28;20049;-73
2021/08/14 00:11:26;;;;;;;3.10;2.80;;;26.60;54.00;;;;;;5029739;28;20550;-73
2021/08/14 00:13:53;;;;;;;3.75;2.88;;;26.60;54.00;;;;;;5030016;28;20132;-72
2021/08/14 00:16:20;;;;;;;2.92;2.60;;;26.60;54.00;;;;;;5029851;28;20084;-73
2021/08/14 00:18:47;;;;;;;3.45;2.70;;;26.60;54.00;;;;;;5030078;28;20490;-73
2021/08/14 00:21:15;;;;;;;3.00;2.58;;;26.60;54.00;;;;;;5027261;28;20049;-73
2021/08/14 00:23:44;;;;;;;3.17;2.45;;;26.60;54.10;;;;;;5009520;28;20480;-73
2021/08/14 00:26:11;;;;;;;2.50;2.30;;;26.50;54.00;;;;;;5016323;28;20088;-73
2021/08/14 00:28:40;;;;;;;3.08;2.60;;;26.60;54.10;;;;;;5029982;28;20153;-73
2021/08/14 00:31:07;;;;;;;2.47;2.25;;;26.50;54.00;;;;;;5029413;28;20124;-74
2021/08/14 00:33:35;;;;;;;2.45;2.25;;;26.60;54.10;;;;;;5028623;28;20053;-73
2021/08/14 00:36:02;;;;;;;3.15;2.38;;;26.50;54.00;;;;;;5029489;28;20067;-74
2021/08/14 00:38:30;;;;;;;2.65;2.45;;;26.50;54.00;;;;;;5029822;28;20106;-73
2021/08/14 00:40:57;;;;;;;2.67;2.47;;;26.60;54.10;;;;;;5029247;28;20049;-73
2021/08/14 00:43:24;;;;;;;3.53;2.70;;;26.60;54.70;;;;;;5029663;28;20144;-74
2021/08/14 00:45:52;;;;;;;3.25;2.63;;;26.60;54.10;;;;;;5029511;28;20120;-74
2021/08/14 00:48:35;;;;;;;2.72;2.53;;;26.60;54.10;;;;;;5029500;28;20154;-74
2021/08/14 00:51:03;;;;;;;3.78;2.90;;;26.50;54.10;;;;;;5029480;28;20084;-73
2021/08/14 00:53:30;;;;;;;4.30;2.50;;;26.50;54.10;;;;;;5029212;28;20057;-74
2021/08/14 00:55:58;;;;;;;3.20;2.60;;;26.60;54.10;;;;;;5029437;28;20124;-73
2021/08/14 00:58:26;;;;;;;3.47;2.60;;;26.50;54.00;;;;;;5029432;28;20049;-75
2021/08/14 01:00:56;;;;;;;3.00;2.38;;;26.60;54.10;;;;;;5029220;28;20128;-73
2021/08/14 01:03:25;;;;;;;2.55;2.30;;;26.50;54.00;;;;;;5028681;28;20049;-73
2021/08/14 01:05:54;;;;;;;2.45;2.25;;;26.60;54.10;;;;;;5029238;28;20398;-73
2021/08/14 01:08:21;;;;;;;3.63;3.10;;;26.50;54.00;;;;;;5029107;28;20508;-73
2021/08/14 01:10:48;;;;;;;3.42;2.47;;;26.50;54.00;;;;;;5029188;28;20076;-73
2021/08/14 01:13:15;;;;;;;2.92;2.72;;;26.50;54.00;;;;;;5028653;28;20077;-73
2021/08/14 01:15:48;;;;;;;2.85;2.63;;;26.60;54.10;;;;;;5028774;28;20128;-73
2021/08/14 01:18:16;;;;;;;3.22;2.35;;;26.50;54.10;;;;;;5028970;28;20076;-73
2021/08/14 01:20:44;;;;;;;2.78;2.40;;;26.50;54.10;;;;;;5028753;28;20049;-73
2021/08/14 01:23:12;;;;;;;2.75;2.55;;;26.50;54.10;;;;;;5028932;28;20081;-73
2021/08/14 01:25:41;;;;;;;2.75;2.47;;;26.50;54.10;;;;;;5028654;28;20493;-73
2021/08/14 01:28:09;;;;;;;2.70;2.50;;;26.50;54.10;;;;;;5028286;28;20049;-73
2021/08/14 01:30:39;;;;;;;3.20;2.50;;;26.50;54.10;;;;;;5028807;28;20103;-73
2021/08/14 01:33:10;;;;;;;3.70;2.33;;;26.50;54.10;;;;;;5028622;28;20049;-73
2021/08/14 01:35:40;;;;;;;3.83;2.45;;;26.50;54.10;;;;;;5028352;28;20056;-73
2021/08/14 01:38:08;;;;;;;3.20;2.70;;;26.50;54.20;;;;;;5028525;28;20049;-73
2021/08/14 01:40:36;;;;;;;3.00;2.33;;;26.50;54.20;;;;;;5028254;28;20132;-73
2021/08/14 01:43:05;;;;;;;3.55;2.45;;;26.50;54.20;;;;;;5028387;28;20045;-73
2021/08/14 01:45:32;;;;;;;2.85;2.38;;;26.50;54.20;;;;;;5028561;28;20089;-73
2021/08/14 01:47:59;;;;;;;2.15;2.05;;;26.50;54.20;;;;;;5027977;28;20088;-73
2021/08/14 01:50:28;;;;;;;3.67;2.85;;;26.50;54.20;;;;;;5028409;28;20068;-74
2021/08/14 01:52:55;;;;;;;3.20;2.65;;;26.50;54.20;;;;;;5028409;28;20068;-73
2021/08/14 01:55:23;;;;;;;2.78;2.50;;;26.50;54.20;;;;;;5028079;28;20518;-73
2021/08/14 01:57:50;;;;;;;2.45;2.25;;;26.40;54.20;;;;;;5028484;28;20077;-73
2021/08/14 02:00:17;;;;;;;3.03;2.45;;;26.50;54.20;;;;;;5028193;28;20532;-74
2021/08/14 02:02:45;;;;;;;7.10;2.72;;;26.50;54.30;;;;;;5043255;28;20056;-74
2021/08/14 02:05:13;;;;;;;2.72;2.53;;;26.50;54.20;;;;;;5028410;28;20050;-73
2021/08/14 02:07:41;;;;;;;2.45;2.25;;;26.50;54.20;;;;;;5027861;28;20071;-73
2021/08/14 02:10:10;;;;;;;4.55;2.60;;;26.40;54.10;;;;;;5028009;28;20047;-73
2021/08/14 02:12:37;;;;;;;3.22;2.33;;;26.50;54.20;;;;;;5027782;28;20140;-73
2021/08/14 02:15:06;;;;;;;2.42;2.20;;;26.50;54.20;;;;;;5027632;28;20132;-73
2021/08/14 02:17:34;;;;;;;2.58;2.35;;;26.40;54.20;;;;;;5027953;28;20049;-73
2021/08/14 02:20:01;;;;;;;3.05;2.67;;;26.40;54.20;;;;;;5027583;28;20133;-73
2021/08/14 02:22:28;;;;;;;3.30;2.22;;;26.40;54.20;;;;;;5027917;28;20474;-73
2021/08/14 02:24:55;;;;;;;2.22;2.05;;;26.50;54.30;;;;;;5027742;28;20042;-73
2021/08/14 02:27:22;;;;;;;2.78;2.38;;;26.40;54.20;;;;;;5027561;28;20088;-74
2021/08/14 02:29:49;;;;;;;3.50;3.15;;;26.40;54.20;;;;;;5027844;28;20045;-74
2021/08/14 02:32:16;;;;;;;3.30;2.58;;;26.50;54.20;;;;;;5027883;28;20100;-73
2021/08/14 02:34:43;;;;;;;2.70;2.35;;;26.40;54.20;;;;;;5027712;28;20466;-73
2021/08/14 02:37:10;;;;;;;2.85;2.55;;;26.50;54.20;;;;;;5027670;28;20140;-74
2021/08/14 02:39:37;;;;;;;3.83;2.30;;;26.40;54.20;;;;;;5027415;28;20136;-73
2021/08/14 02:42:04;;;;;;;3.03;2.67;;;26.40;54.10;;;;;;5027752;28;20056;-73
2021/08/14 02:44:31;;;;;;;2.35;2.15;;;26.50;54.20;;;;;;5027502;28;20052;-73
2021/08/14 02:46:59;;;;;;;2.83;2.58;;;26.40;54.10;;;;;;5027569;28;20578;-73
2021/08/14 02:49:26;;;;;;;2.70;2.50;;;26.50;54.20;;;;;;5031745;28;20084;-74
2021/08/14 02:51:53;;;;;;;2.80;2.60;;;26.50;54.20;;;;;;5031302;28;20504;-73
2021/08/14 02:54:20;;;;;;;3.30;2.50;;;26.40;54.70;;;;;;5046818;28;20053;-75
2021/08/14 02:56:47;;;;;;;2.95;2.40;;;26.50;54.20;;;;;;5031460;28;20140;-74
2021/08/14 02:59:14;;;;;;;2.70;2.50;;;26.50;54.20;;;;;;5030717;28;20462;-73
2021/08/14 03:01:41;;;;;;;2.85;2.55;;;26.40;54.20;;;;;;5031270;28;20132;-73
2021/08/14 03:04:09;;;;;;;3.20;2.75;;;26.40;54.20;;;;;;5031394;28;20049;-73
2021/08/14 03:06:36;;;;;;;2.65;2.28;;;26.40;54.20;;;;;;5046329;28;20072;-73
2021/08/14 03:09:05;;;;;;;3.47;2.83;;;26.40;54.20;;;;;;5031429;28;20115;-74
2021/08/14 03:11:32;;;;;;;2.97;2.50;;;26.40;54.20;;;;;;5031297;28;20077;-73
2021/08/14 03:14:00;;;;;;;2.95;2.65;;;26.40;54.20;;;;;;5030870;28;20088;-73
2021/08/14 03:16:27;;;;;;;2.30;2.10;;;26.40;54.20;;;;;;5031270;28;20410;-74
2021/08/14 03:18:54;;;;;;;2.58;2.38;;;26.40;54.20;;;;;;5030727;28;20096;-73
2021/08/14 03:21:21;;;;;;;2.83;2.55;;;26.40;54.20;;;;;;5030950;28;20124;-73
2021/08/14 03:23:49;;;;;;;3.03;2.47;;;26.40;54.20;;;;;;5046145;28;20534;-73
2021/08/14 03:26:16;;;;;;;3.33;2.42;;;26.40;54.20;;;;;;5030257;28;20128;-73
2021/08/14 03:28:43;;;;;;;3.08;2.75;;;26.40;54.20;;;;;;5030833;28;20415;-73
2021/08/14 03:31:10;;;;;;;3.15;2.70;;;26.40;54.20;;;;;;5030570;28;20122;-73
2021/08/14 03:33:37;;;;;;;3.33;2.45;;;26.40;54.20;;;;;;5030822;28;20049;-73
2021/08/14 03:36:04;;;;;;;3.00;2.50;;;26.40;54.30;;;;;;5031101;28;20647;-73
2021/08/14 03:38:33;;;;;;;3.20;2.60;;;26.40;54.20;;;;;;5030681;28;20453;-74
2021/08/14 03:41:00;;;;;;;2.80;2.30;;;26.40;54.30;;;;;;5030291;28;20045;-73
2021/08/14 03:43:27;;;;;;;2.72;2.22;;;26.40;54.30;;;;;;5030987;28;20128;-73
2021/08/14 03:45:54;;;;;;;2.65;2.45;;;26.40;54.30;;;;;;5030679;28;20081;-73
2021/08/14 03:48:21;;;;;;;3.03;2.28;;;26.40;54.30;;;;;;5030717;28;20085;-73
2021/08/14 03:50:49;;;;;;;2.50;2.30;;;26.40;54.30;;;;;;5030439;28;20128;-74
2021/08/14 03:53:16;;;;;;;3.33;2.95;;;26.40;54.30;;;;;;5030401;28;20073;-73
2021/08/14 03:55:43;;;;;;;2.80;2.60;;;26.40;54.30;;;;;;5030132;28;20107;-74
2021/08/14 03:58:11;;;;;;;3.05;2.30;;;26.40;54.20;;;;;;5029812;28;20045;-73
2021/08/14 04:00:38;;;;;;;2.63;2.42;;;26.40;54.20;;;;;;5029295;28;20533;-74
2021/08/14 04:03:06;;;;;;;2.78;2.58;;;26.40;54.20;;;;;;5030501;28;20104;-73
2021/08/14 04:05:33;;;;;;;2.88;2.25;;;26.40;54.20;;;;;;5030381;28;20568;-73
2021/08/14 04:08:00;;;;;;;2.75;2.38;;;26.40;54.20;;;;;;5029923;28;20729;-74
2021/08/14 04:10:27;;;;;;;3.80;2.85;;;26.50;54.20;;;;;;5030317;28;20137;-74
2021/08/14 04:12:54;;;;;;;2.50;2.22;;;26.50;54.20;;;;;;5028758;28;20060;-74
2021/08/14 04:15:21;;;;;;;2.65;2.45;;;26.40;54.10;;;;;;5029935;28;20053;-75
2021/08/14 04:17:49;;;;;;;2.47;2.28;;;26.50;54.10;;;;;;5029735;28;20096;-74
2021/08/14 04:20:16;;;;;;;3.40;2.63;;;26.50;54.10;;;;;;5011117;28;20088;-73
2021/08/14 04:22:43;;;;;;;2.58;2.35;;;26.50;54.10;;;;;;5010123;28;20054;-74
2021/08/14 04:25:10;;;;;;;2.88;2.40;;;26.50;54.00;;;;;;5010038;28;20128;-74
2021/08/14 04:27:37;;;;;;;2.65;2.25;;;26.50;54.00;;;;;;5023168;28;20128;-74
2021/08/14 04:30:05;;;;;;;2.72;2.45;;;26.50;54.00;;;;;;5029950;28;20081;-74
2021/08/14 04:32:34;;;;;;;4.10;2.25;;;26.50;54.00;;;;;;5029528;28;20051;-74
2021/08/14 04:35:06;;;;;;;3.03;2.05;;;26.50;54.00;;;;;;5029726;28;20057;-74
2021/08/14 04:37:34;;;;;;;2.67;2.05;;;26.50;53.90;;;;;;5029433;28;20077;-74
2021/08/14 04:40:03;;;;;;;2.88;2.42;;;26.60;54.00;;;;;;5029881;28;20132;-74
2021/08/14 04:42:33;;;;;;;3.50;2.33;;;26.50;54.50;;;;;;5029469;28;20728;-74
2021/08/14 04:45:01;;;;;;;2.75;2.50;;;26.60;53.90;;;;;;5029587;28;20549;-74
2021/08/14 04:47:28;;;;;;;2.60;2.40;;;26.60;53.80;;;;;;5029893;28;20057;-75
2021/08/14 04:49:56;;;;;;;3.33;2.05;;;26.60;53.80;;;;;;5031387;28;20103;-75
2021/08/14 04:52:23;;;;;;;2.28;2.08;;;26.60;53.80;;;;;;5029687;28;20417;-74
2021/08/14 04:54:50;;;;;;;3.80;2.72;;;26.60;53.70;;;;;;5028644;28;20046;-75
2021/08/14 04:57:17;;;;;;;3.97;2.63;;;26.60;53.70;;;;;;5029309;28;20042;-75
2021/08/14 04:59:45;;;;;;;2.20;2.10;;;26.60;53.60;;;;;;5029844;28;20059;-74
2021/08/14 05:02:12;;;;;;;3.17;2.63;;;26.70;53.70;;;;;;5028795;28;20490;-74
2021/08/14 05:04:39;;;;;;;2.47;2.28;;;26.70;53.60;;;;;;5029666;28;20513;-73
2021/08/14 05:07:06;;;;;;;3.33;3.00;;;26.70;53.60;;;;;;5029915;28;20125;-73
2021/08/14 05:09:37;;;;;;;2.53;2.25;;;26.70;53.70;;;;;;5029477;28;20049;-74
2021/08/14 05:12:06;;;;;;;3.03;2.75;;;26.60;53.70;;;;;;5029790;28;20457;-74
2021/08/14 05:14:34;;;;;;;2.67;2.47;;;26.60;54.00;;;;;;5029694;28;20186;-74
2021/08/14 05:17:03;;;;;;;2.97;2.40;;;26.50;54.10;;;;;;5029835;28;20045;-74
2021/08/14 05:19:30;;;;;;;2.58;2.30;;;26.40;54.30;;;;;;5029523;28;20136;-74
2021/08/14 05:21:57;;;;;;;2.50;2.30;;;26.30;54.60;;;;;;5029483;28;20048;-73
2021/08/14 05:24:25;;;;;;;3.28;2.72;;;26.10;54.90;;;;;;5028918;28;20096;-73
2021/08/14 05:26:52;;;;;;;2.60;2.40;;;25.90;55.30;;;;;;5043470;28;20045;-73
2021/08/14 05:29:20;;;;;;;3.47;2.63;;;25.70;55.80;;;;;;5049466;28;20048;-73
2021/08/14 05:31:47;;;;;;;2.85;2.65;;;25.50;56.50;;;;;;5049317;28;20566;-73
2021/08/14 05:34:14;;;;;;;3.33;3.03;;;25.20;57.10;;;;;;5047786;28;20059;-73
2021/08/14 05:36:41;;;;;;;2.58;2.38;;;25.00;57.80;;;;;;5049229;28;20490;-73
2021/08/14 05:39:08;;;;;;;3.15;2.40;;;24.80;58.40;;;;;;5047737;28;20049;-73
2021/08/14 05:41:39;;;;;;;2.90;2.70;;;24.70;58.70;;;;;;5049023;28;20059;-73
2021/08/14 05:44:08;;;;;;;3.90;2.67;;;24.60;59.10;;;;;;5048636;28;20045;-72
2021/08/14 05:46:35;;;;;;;3.30;3.00;;;24.50;59.30;;;;;;5048996;28;20128;-73
2021/08/14 05:49:02;;;;;;;3.15;2.85;;;24.40;59.50;;;;;;5048846;28;20481;-73
2021/08/14 05:51:29;;;;;;;2.72;2.53;;;24.30;59.70;;;;;;5049092;28;20420;-73
2021/08/14 05:54:14;;;;;;;3.22;2.92;;;24.30;59.90;;;;;;5047615;28;20395;-72
2021/08/14 05:56:41;;;;;;;3.65;3.20;;;24.20;60.10;;;;;;5048600;28;20075;-73
2021/08/14 05:59:08;;;;;;;3.33;2.75;;;24.20;60.20;;;;;;5048997;28;20140;-73
2021/08/14 06:01:35;;;;;;;3.10;2.90;;;24.10;60.40;;;;;;5048794;28;20045;-73
2021/08/14 06:04:03;;;;;;;3.20;2.90;;;24.10;60.40;;;;;;5048471;28;20168;-73
2021/08/14 06:06:30;;;;;;;3.60;3.00;;;24.10;60.50;;;;;;5048978;28;20045;-73
2021/08/14 06:08:58;;;;;;;3.70;3.40;;;24.10;60.60;;;;;;5048510;28;20088;-74
2021/08/14 06:11:25;;;;;;;3.17;2.90;;;24.00;60.80;;;;;;5048062;28;20088;-73
2021/08/14 06:13:52;;;;;;;3.33;3.03;;;24.00;61.00;;;;;;5047583;28;20139;-73
2021/08/14 06:16:19;;;;;;;3.22;3.03;;;23.90;61.10;;;;;;5048076;28;20140;-73
2021/08/14 06:18:47;;;;;;;3.75;2.97;;;23.90;61.30;;;;;;5047703;28;20124;-75
2021/08/14 06:21:14;;;;;;;3.10;2.80;;;23.90;61.40;;;;;;5046649;28;20102;-73
2021/08/14 06:23:41;;;;;;;3.97;3.58;;;23.90;61.50;;;;;;5047283;28;20048;-72
2021/08/14 06:26:08;;;;;;;3.90;3.50;;;23.80;61.60;;;;;;5046433;28;20052;-73
2021/08/14 06:28:35;;;;;;;3.20;2.90;;;23.80;61.70;;;;;;5047515;28;20135;-74
2021/08/14 06:31:02;;;;;;;3.28;3.08;;;23.80;61.90;;;;;;5047439;28;20119;-73
2021/08/14 06:33:31;;;;;;;3.53;3.22;;;23.80;62.00;;;;;;5047598;28;20465;-73
2021/08/14 06:36:01;;;;;;;4.18;3.78;;;23.70;62.00;;;;;;5047084;28;20049;-73
2021/08/14 06:38:28;;;;;;;3.70;3.40;;;23.70;62.00;;;;;;5047385;28;20140;-73
2021/08/14 06:40:55;;;;;;;3.75;3.38;;;23.70;62.20;;;;;;5046170;28;20099;-73
2021/08/14 06:43:22;;;;;;;4.00;3.53;;;23.70;62.20;;;;;;5047786;28;20059;-73
2021/08/14 06:45:50;;;;;;;4.07;3.67;;;23.70;62.30;;;;;;5047456;28;20489;-73
2021/08/14 06:48:17;;;;;;;4.15;3.28;;;23.70;62.40;;;;;;5046282;28;20049;-73
2021/08/14 06:50:44;;;;;;;4.07;3.67;;;23.70;62.40;;;;;;5047428;28;20084;-72
2021/08/14 06:53:15;;;;;;;3.75;3.45;;;23.70;62.50;;;;;;5047362;28;20053;-73
2021/08/14 06:55:43;;;;;;;3.28;3.08;;;23.70;62.50;;;;;;5047415;28;20084;-73
2021/08/14 06:58:10;;;;;;;3.70;3.40;;;23.70;62.60;;;;;;5047382;28;20068;-73
2021/08/14 07:00:37;;;;;;;4.18;3.85;;;23.70;62.60;;;;;;5046231;28;20128;-73
2021/08/14 07:03:06;;;;;;;3.58;3.28;;;23.70;62.60;;;;;;5046057;28;20045;-73
2021/08/14 07:05:37;;;;;;;4.00;3.60;;;23.70;62.60;;;;;;5046532;28;20071;-73
2021/08/14 07:08:04;;;;;;;4.38;3.30;;;23.70;62.70;;;;;;5046669;28;20041;-75
2021/08/14 07:10:31;;;;;;;4.07;3.40;;;23.70;62.70;;;;;;5047353;28;20049;-72
2021/08/14 07:12:58;;;;;;;3.92;3.63;;;23.70;62.70;;;;;;5047299;28;20293;-72
2021/08/14 07:15:25;;;;;;;4.30;3.90;;;23.70;62.70;;;;;;5046876;28;20410;-73
2021/08/14 07:17:52;;;;;;;3.45;3.17;;;23.80;62.70;;;;;;5047274;28;20048;-73
2021/08/14 07:20:20;;;;;;;3.60;3.30;;;23.80;62.60;;;;;;5046091;28;20045;-73
2021/08/14 07:22:47;;;;;;;3.80;3.40;;;23.80;62.70;;;;;;5047237;28;20128;-73
2021/08/14 07:25:15;;;;;;;4.50;4.10;;;23.80;62.70;;;;;;5046634;28;20091;-73
2021/08/14 07:27:42;;;;;;;4.47;4.07;;;23.80;62.70;;;;;;5047142;28;20606;-73
2021/08/14 07:30:10;;;;;;;4.00;3.60;;;23.80;62.70;;;;;;5045618;28;20084;-72
2021/08/14 07:32:38;;;;;;;4.35;3.83;;;23.80;62.80;;;;;;5046988;28;20063;-73
2021/08/14 07:35:05;;;;;;;3.92;3.63;;;23.80;62.80;;;;;;5050349;28;20049;-73
2021/08/14 07:37:32;;;;;;;4.80;3.85;;;23.80;62.70;;;;;;5049851;28;20120;-73
2021/08/14 07:39:59;;;;;;;4.55;4.15;;;23.80;62.80;;;;;;5050421;28;20075;-73
2021/08/14 07:42:27;;;;;;;4.30;3.90;;;23.80;62.80;;;;;;5050828;28;20063;-72
2021/08/14 07:44:55;;;;;;;4.20;3.80;;;23.80;62.90;;;;;;5049140;28;20417;-72
2021/08/14 07:47:22;;;;;;;4.07;3.70;;;23.70;62.80;;;;;;5050355;28;20041;-73
2021/08/14 07:49:49;;;;;;;4.07;3.67;;;23.80;62.90;;;;;;5049685;28;20052;-72
2021/08/14 07:52:16;;;;;;;4.80;4.25;;;23.80;62.90;;;;;;5050410;28;20479;-73
2021/08/14 07:54:43;;;;;;;3.65;3.35;;;23.80;63.00;;;;;;5049962;28;20140;-73
2021/08/14 07:57:11;;;;;;;4.07;3.78;;;23.70;63.00;;;;;;5050303;28;20064;-72
2021/08/14 07:59:38;;;;;;;3.97;3.67;;;23.70;63.10;;;;;;5049977;28;20084;-72
2021/08/14 08:02:05;;;;;;;4.80;4.30;;;23.70;63.10;;;;;;5050413;28;20107;-72
2021/08/14 08:04:32;;;;;;;4.47;4.07;;;23.70;63.20;;;;;;5049848;28;20540;-75
2021/08/14 08:06:59;;;;;;;3.83;3.53;;;23.70;63.20;;;;;;5050346;28;20134;-72
2021/08/14 08:09:27;;;;;;;4.35;3.97;;;23.70;63.30;;;;;;5050088;28;20462;-73
2021/08/14 08:11:55;;;;;;;4.45;4.05;;;23.70;63.30;;;;;;5048926;28;20561;-72
2021/08/14 08:14:22;;;;;;;4.13;3.72;;;23.60;63.30;;;;;;5049749;28;20501;-72
2021/08/14 08:16:51;;;;;;;4.70;4.30;;;23.60;63.30;;;;;;5049966;28;20469;-73
2021/08/14 08:19:18;;;;;;;3.60;3.30;;;23.60;63.40;;;;;;5049525;28;20064;-73
2021/08/14 08:21:46;;;;;;;4.18;3.78;;;23.60;63.50;;;;;;5049808;28;20128;-72
2021/08/14 08:24:13;;;;;;;4.72;4.32;;;23.60;63.60;;;;;;5049914;28;20100;-73
2021/08/14 08:26:40;;;;;;;4.45;4.03;;;23.60;63.70;;;;;;5049632;28;20136;-72
2021/08/14 08:29:07;;;;;;;4.47;4.07;;;23.60;63.70;;;;;;5049709;28;20135;-72
2021/08/14 08:31:35;;;;;;;4.50;4.10;;;23.60;63.80;;;;;;5049750;28;20608;-73
2021/08/14 08:34:02;;;;;;;4.43;4.03;;;23.60;63.80;;;;;;5049498;28;20076;-73
2021/08/14 08:36:29;;;;;;;4.07;3.78;;;23.60;63.90;;;;;;5049402;28;20087;-73
2021/08/14 08:38:56;;;;;;;5.13;4.07;;;23.60;63.90;;;;;;5049659;28;20097;-72
2021/08/14 08:41:23;;;;;;;4.50;4.10;;;23.60;63.90;;;;;;5049206;28;20488;-73
2021/08/14 08:43:51;;;;;;;4.68;3.92;;;23.60;63.90;;;;;;5049718;28;20132;-73
2021/08/14 08:46:19;;;;;;;4.50;4.00;;;23.60;63.90;;;;;;5048759;28;20512;-73
2021/08/14 08:48:51;;;;;;;4.43;4.03;;;23.60;63.80;;;;;;5049428;28;20437;-75
2021/08/14 08:51:28;;;;;;;4.25;3.90;;;23.60;63.70;;;;;;5049234;28;20132;-74
2021/08/14 08:53:55;;;;;;;5.03;4.07;;;23.60;63.70;;;;;;5049416;28;20082;-73
2021/08/14 08:56:23;;;;;;;4.20;3.80;;;23.60;63.60;;;;;;5049120;28;20466;-74
2021/08/14 08:58:50;;;;;;;4.38;4.03;;;23.60;63.50;;;;;;5049182;28;20049;-73
2021/08/14 09:01:17;;;;;;;4.35;3.75;;;23.70;63.50;;;;;;5048898;28;20053;-73
2021/08/14 09:03:44;;;;;;;5.22;4.13;;;23.70;63.40;;;;;;5049225;28;20063;-73
2021/08/14 09:06:13;;;;;;;4.28;3.88;;;23.70;63.40;;;;;;5048658;28;20528;-73
2021/08/14 09:08:40;;;;;;;3.90;3.60;;;23.70;63.30;;;;;;5048977;28;20490;-74
2021/08/14 09:11:13;;;;;;;4.25;3.85;;;23.70;63.10;;;;;;5049258;28;20049;-73
2021/08/14 09:14:06;;;;;;;4.45;4.05;;;23.70;63.10;;;;;;5049154;28;20140;-73
2021/08/14 09:16:34;;;;;;;3.67;3.38;;;23.70;63.00;;;;;;5048449;28;20075;-72
2021/08/14 09:19:02;;;;;;;3.75;3.55;;;23.70;62.80;;;;;;5048988;28;20071;-73
2021/08/14 09:21:38;;;;;;;3.88;3.58;;;23.80;62.80;;;;;;5048416;28;20486;-73
2021/08/14 09:24:08;;;;;;;3.83;3.53;;;23.80;62.70;;;;;;5048790;28;20143;-73
2021/08/14 09:26:59;;;;;;;4.63;4.17;;;23.80;62.60;;;;;;5048552;28;20051;-73
2021/08/14 09:29:36;;;;;;;4.07;3.72;;;23.80;62.50;;;;;;5047474;28;20352;-75
2021/08/14 09:32:05;;;;;;;4.43;4.03;;;23.80;62.40;;;;;;5048540;28;20041;-73
2021/08/14 09:34:33;;;;;;;4.20;3.90;;;23.80;62.30;;;;;;5048338;28;20056;-73
2021/08/14 09:37:06;;;;;;;4.38;3.97;;;23.80;62.20;;;;;;5048159;28;20052;-73
2021/08/14 09:39:49;;;;;;;4.07;3.67;;;23.80;62.20;;;;;;5048414;28;20135;-71
2021/08/14 09:42:16;;;;;;;4.20;3.80;;;23.80;62.10;;;;;;5048216;28;20095;-72
2021/08/14 09:44:43;;;;;;;4.10;3.70;;;23.80;62.00;;;;;;5048734;28;20075;-73
2021/08/14 09:47:32;;;;;;;4.15;3.85;;;23.80;62.00;;;;;;5047835;28;20468;-73
2021/08/14 09:50:00;;;;;;;4.63;3.60;;;23.80;62.00;;;;;;5048182;28;20589;-73
2021/08/14 09:52:27;;;;;;;4.03;3.72;;;23.80;62.00;;;;;;5048132;28;20405;-73
2021/08/14 09:54:55;;;;;;;4.20;3.90;;;23.80;62.00;;;;;;5047860;28;20103;-73
2021/08/14 09:57:23;;;;;;;3.97;3.67;;;23.80;61.90;;;;;;5048040;28;20127;-73
2021/08/14 09:59:51;;;;;;;4.63;4.22;;;23.80;61.90;;;;;;5048078;28;20220;-73
2021/08/14 10:02:26;;;;;;;3.67;3.38;;;23.80;61.90;;;;;;5048045;28;20428;-73
2021/08/14 10:04:55;;;;;;;4.50;4.10;;;23.80;61.80;;;;;;5047922;28;20052;-73
2021/08/14 10:07:23;;;;;;;4.38;3.97;;;23.80;61.80;;;;;;5047881;28;20076;-73
2021/08/14 10:09:51;;;;;;;4.22;3.92;;;23.80;61.80;;;;;;5047976;28;20043;-73
2021/08/14 10:12:20;;;;;;;4.43;4.03;;;23.80;61.80;;;;;;5047898;28;20124;-73
2021/08/14 10:14:50;;;;;;;4.38;4.03;;;23.80;61.80;;;;;;5046721;28;20055;-73
2021/08/14 10:17:21;;;;;;;4.43;4.03;;;23.80;61.80;;;;;;5048053;28;20452;-73
2021/08/14 10:19:49;;;;;;;4.03;3.63;;;23.80;61.80;;;;;;5048017;28;20132;-73
2021/08/14 10:22:16;;;;;;;4.18;3.88;;;23.80;61.80;;;;;;5047633;28;20089;-73
2021/08/14 10:24:45;;;;;;;4.43;4.03;;;23.80;61.70;;;;;;5047704;28;20131;-73
2021/08/14 10:27:16;;;;;;;4.28;3.88;;;23.80;61.60;;;;;;5047651;28;20044;-74
2021/08/14 10:29:48;;;;;;;4.03;3.72;;;23.80;61.50;;;;;;5046360;28;20395;-73
2021/08/14 10:32:45;;;;;;;4.22;3.92;;;23.80;61.40;;;;;;5047878;28;20132;-73
2021/08/14 10:35:36;;;;;;;4.55;4.15;;;23.80;61.30;;;;;;5047675;28;20057;-74
2021/08/14 10:38:04;;;;;;;4.38;3.97;;;23.90;61.20;;;;;;5046504;28;20132;-73
2021/08/14 10:40:59;;;;;;;4.20;3.88;;;23.90;61.20;;;;;;5047638;28;20055;-73
2021/08/14 10:43:58;;;;;;;5.32;3.97;;;23.90;61.00;;;;;;5047212;28;20056;-73
2021/08/14 10:46:42;;;;;;;4.20;3.80;;;23.90;61.00;;;;;;5034690;28;20076;-74
2021/08/14 10:49:12;;;;;;;4.32;3.92;;;23.90;60.90;;;;;;5027784;28;20049;-73
2021/08/14 10:52:08;;;;;;;3.95;3.65;;;23.90;60.90;;;;;;5028204;28;20133;-76
2021/08/14 10:55:04;;;;;;;3.97;3.60;;;23.80;60.80;;;;;;5039160;28;20056;-73
2021/08/14 10:57:44;;;;;;;3.97;3.60;;;23.80;60.80;;;;;;5027400;28;20542;-73
2021/08/14 11:00:24;;;;;;;4.40;4.00;;;23.80;60.80;;;;;;5027603;28;20052;-73
2021/08/14 11:03:00;;;;;;;4.25;3.90;;;23.80;60.80;;;;;;5027405;28;20144;-73
2021/08/14 11:05:28;;;;;;;4.47;4.07;;;23.80;60.80;;;;;;5027487;28;20100;-73
2021/08/14 11:08:00;;;;;;;4.45;4.05;;;23.80;60.80;;;;;;5027568;28;20152;-73
2021/08/14 11:10:41;;;;;;;4.10;3.72;;;23.80;60.80;;;;;;5031212;28;20050;-73
2021/08/14 11:13:38;;;;;;;4.05;3.70;;;23.80;60.90;;;;;;5031306;28;20054;-73
2021/08/14 11:16:06;;;;;;;4.70;4.22;;;23.70;60.80;;;;;;5029938;28;20077;-73
2021/08/14 11:18:54;;;;;;;3.85;3.55;;;23.70;60.80;;;;;;5031129;28;20108;-73
2021/08/14 11:21:42;;;;;;;4.50;4.10;;;23.80;60.80;;;;;;5031015;28;20144;-73
2021/08/14 11:24:30;;;;;;;4.25;3.85;;;23.80;60.80;;;;;;5031203;28;20442;-73
2021/08/14 11:26:59;;;;;;;5.40;3.78;;;23.70;60.60;;;;;;5030861;28;20081;-73
2021/08/14 11:29:26;;;;;;;4.10;3.70;;;23.70;60.60;;;;;;5030652;28;20075;-73
2021/08/14 11:31:56;;;;;;;3.83;3.53;;;23.80;60.70;;;;;;5030804;28;20049;-73
2021/08/14 11:34:24;;;;;;;4.70;4.20;;;23.70;60.60;;;;;;5030841;28;20050;-73
2021/08/14 11:36:58;;;;;;;4.10;3.70;;;23.80;60.60;;;;;;5030534;28;20084;-73
2021/08/14 11:39:31;;;;;;;3.75;3.45;;;23.80;60.60;;;;;;5031205;28;20067;-73
2021/08/14 11:41:58;;;;;;;4.13;3.72;;;23.80;60.60;;;;;;5030359;28;20144;-73
2021/08/14 11:44:26;;;;;;;4.10;3.80;;;23.80;60.50;;;;;;5030808;28;20088;-73
2021/08/14 11:47:06;;;;;;;4.03;3.63;;;23.80;60.50;;;;;;5030509;28;20157;-73
2021/08/14 11:49:54;;;;;;;4.18;3.88;;;23.70;60.40;;;;;;5045667;28;20505;-74
2021/08/14 11:52:22;;;;;;;4.13;3.72;;;23.80;60.50;;;;;;5030628;28;20053;-73
2021/08/14 11:55:03;;;;;;;3.55;3.25;;;23.70;60.40;;;;;;5030421;28;20071;-73
2021/08/14 11:57:37;;;;;;;3.92;3.63;;;23.70;60.40;;;;;;5030856;28;20129;-73
2021/08/14 12:00:25;;;;;;;5.18;4.38;;;23.70;60.40;;;;;;5030324;28;20145;-74
2021/08/14 12:03:15;;;;;;;3.63;3.33;;;23.70;60.30;;;;;;5030172;28;20041;-74
2021/08/14 12:05:44;;;;;;;;;;;23.70;60.80;;;;;;5030894;28;20057;-73
2021/08/14 12:08:31;;;;;;;4.30;3.90;;;23.80;60.30;;;;;;5030459;28;19928;-74
2021/08/14 12:11:01;;;;;;;3.90;3.60;;;23.80;60.20;;;;;;5030040;28;20060;-74
2021/08/14 12:13:29;;;;;;;3.63;3.33;;;23.80;60.10;;;;;;5030186;28;20049;-74
2021/08/14 12:16:09;;;;;;;;;;;23.80;60.00;;;;;;5030682;28;20409;-74
2021/08/14 12:18:38;;;;;;;4.30;3.90;;;23.80;60.00;;;;;;5029871;28;19922;-76
2021/08/14 12:21:07;;;;;;;3.58;3.28;;;23.80;60.00;;;;;;5028978;28;20395;-74
2021/08/14 12:23:36;;;;;;;3.63;3.33;;;23.80;60.00;;;;;;5029904;28;20053;-73
2021/08/14 12:26:06;;;;;;;3.90;3.60;;;23.80;59.90;;;;;;5030039;28;20566;-74
2021/08/14 12:28:34;;;;;;;;;;;23.80;59.90;;;;;;5030715;28;20203;-74
2021/08/14 12:31:20;;;;;;;4.15;3.85;;;23.80;59.80;;;;;;5029799;28;19960;-74
2021/08/14 12:33:50;;;;;;;3.42;3.13;;;23.80;59.80;;;;;;5028967;28;20045;-74
2021/08/14 12:36:39;;;;;;;4.03;3.72;;;23.80;59.80;;;;;;5029579;28;20085;-73
2021/08/14 12:39:08;;;;;;;3.70;3.40;;;23.80;59.70;;;;;;5029484;28;20085;-73
2021/08/14 12:41:38;;;;;;;3.90;3.60;;;23.80;59.70;;;;;;5029687;28;20119;-74
2021/08/14 12:44:07;;;;;;;3.88;3.58;;;23.80;59.70;;;;;;5029335;28;20041;-75
2021/08/14 12:46:34;;;;;;;3.85;3.55;;;23.80;59.80;;;;;;5029686;28;20144;-74
2021/08/14 12:49:25;;;;;;;3.40;3.10;;;23.80;59.80;;;;;;5029791;28;20053;-73
2021/08/14 12:52:02;;;;;;;4.25;3.85;;;23.80;59.80;;;;;;5029558;28;20448;-74
2021/08/14 12:54:38;;;;;;;3.65;3.35;;;23.80;59.70;;;;;;5029558;28;20041;-74
2021/08/14 12:57:08;;;;;;;3.80;3.50;;;23.80;59.70;;;;;;5029580;28;20402;-74
2021/08/14 12:59:37;;;;;;;3.53;3.22;;;23.80;59.60;;;;;;5029383;28;20081;-74
2021/08/14 13:02:06;;;;;;;3.80;3.50;;;23.90;59.60;;;;;;5028825;28;20136;-74